createdAt,value
2019-04-29T00:00:03.584Z,12.66
2019-04-29T00:01:03.545Z,12.58
2019-04-29T00:02:03.547Z,12.55
2019-04-29T00:03:03.522Z,12.55
2019-04-29T00:04:03.512Z,12.55
2019-04-29T00:05:03.507Z,12.54
2019-04-29T00:06:03.489Z,12.61
2019-04-29T00:07:03.475Z,12.62
2019-04-29T00:08:03.466Z,12.61
2019-04-29T00:09:03.457Z,12.61
2019-04-29T00:10:03.453Z,12.61
2019-04-29T00:11:03.435Z,12.62
2019-04-29T00:12:03.425Z,12.54
2019-04-29T00:13:03.414Z,12.58
2019-04-29T00:14:03.404Z,12.58
2019-04-29T00:15:03.405Z,12.58
2019-04-29T00:16:03.380Z,12.54
2019-04-29T00:17:03.369Z,12.55
2019-04-29T00:18:03.356Z,12.49
2019-04-29T00:19:03.348Z,12.49
2019-04-29T00:20:03.350Z,12.43
2019-04-29T00:21:03.334Z,12.55
2019-04-29T00:22:03.318Z,12.55
2019-04-29T00:23:03.304Z,12.46
2019-04-29T00:24:04.346Z,12.49
2019-04-29T00:25:03.295Z,12.46
2019-04-29T00:26:03.275Z,12.41
2019-04-29T00:27:03.266Z,12.46
2019-04-29T00:28:03.252Z,12.51
2019-04-29T00:29:03.239Z,12.26
2019-04-29T00:30:03.230Z,12.33
2019-04-29T00:31:03.230Z,12.34
2019-04-29T00:32:03.208Z,12.33
2019-04-29T00:33:03.195Z,12.30
2019-04-29T00:34:03.191Z,12.34
2019-04-29T00:35:03.177Z,12.31
2019-04-29T00:36:03.175Z,12.33
2019-04-29T00:37:03.173Z,12.33
2019-04-29T00:38:03.146Z,12.48
2019-04-29T00:39:03.172Z,12.31
2019-04-29T00:40:03.122Z,12.38
2019-04-29T00:41:03.123Z,12.29
2019-04-29T00:42:03.104Z,12.33
2019-04-29T00:43:03.102Z,12.38
2019-04-29T00:44:03.093Z,12.33
2019-04-29T00:45:03.072Z,12.31
2019-04-29T00:46:03.075Z,12.31
2019-04-29T00:47:03.048Z,12.34
2019-04-29T00:48:03.037Z,12.31
2019-04-29T00:49:03.032Z,12.19
2019-04-29T00:50:03.017Z,12.26
2019-04-29T00:51:03.318Z,12.23
2019-04-29T00:52:02.995Z,12.21
2019-04-29T00:53:02.990Z,12.29
2019-04-29T00:54:02.972Z,12.25
2019-04-29T00:55:02.970Z,12.25
2019-04-29T00:56:02.952Z,12.22
2019-04-29T00:57:02.951Z,12.25
2019-04-29T00:58:02.932Z,12.23
2019-04-29T00:59:02.921Z,12.21
2019-04-29T01:00:02.912Z,12.23
2019-04-29T01:01:02.903Z,12.21
2019-04-29T01:02:02.898Z,12.25
2019-04-29T01:03:02.881Z,12.18
2019-04-29T01:04:02.867Z,12.18
2019-04-29T01:05:02.856Z,12.23
2019-04-29T01:06:02.845Z,12.18
2019-04-29T01:07:02.850Z,12.21
2019-04-29T01:08:02.829Z,12.08
2019-04-29T01:09:02.815Z,12.15
2019-04-29T01:10:02.803Z,12.12
2019-04-29T01:11:02.793Z,12.08
2019-04-29T01:12:02.792Z,12.04
2019-04-29T01:13:02.772Z,12.05
2019-04-29T01:14:02.760Z,12.03
2019-04-29T01:15:02.750Z,12.05
2019-04-29T01:16:02.745Z,12.01
2019-04-29T01:17:02.740Z,12.01
2019-04-29T01:18:02.718Z,12.05
2019-04-29T01:19:03.988Z,12.03
2019-04-29T01:20:02.697Z,12.01
2019-04-29T01:21:02.689Z,12.01
2019-04-29T01:22:02.686Z,12.04
2019-04-29T01:23:02.664Z,11.96
2019-04-29T01:24:02.655Z,12.03
2019-04-29T01:25:02.642Z,12.05
2019-04-29T01:26:02.633Z,12.00
2019-04-29T01:27:02.632Z,11.98
2019-04-29T01:28:02.612Z,12.11
2019-04-29T01:29:02.600Z,12.01
2019-04-29T01:30:02.622Z,12.00
2019-04-29T01:31:02.580Z,11.98
2019-04-29T01:32:02.586Z,12.01
2019-04-29T01:33:02.558Z,12.04
2019-04-29T01:34:02.552Z,11.98
2019-04-29T01:35:02.540Z,12.01
2019-04-29T01:36:02.527Z,12.01
2019-04-29T01:37:02.539Z,12.01
2019-04-29T01:38:02.508Z,12.00
2019-04-29T01:39:02.499Z,12.05
2019-04-29T01:40:02.485Z,11.97
2019-04-29T01:41:02.476Z,12.07
2019-04-29T01:42:02.463Z,12.00
2019-04-29T01:43:02.465Z,12.01
2019-04-29T01:44:02.447Z,11.94
2019-04-29T01:45:02.433Z,11.98
2019-04-29T01:46:02.421Z,11.93
2019-04-29T01:47:02.412Z,12.01
2019-04-29T01:48:02.415Z,11.98
2019-04-29T01:49:02.393Z,11.88
2019-04-29T01:50:02.379Z,11.97
2019-04-29T01:51:02.366Z,11.96
2019-04-29T01:52:02.358Z,11.97
2019-04-29T01:53:02.353Z,11.84
2019-04-29T01:54:02.334Z,11.85
2019-04-29T01:55:02.327Z,11.84
2019-04-29T01:56:02.313Z,11.90
2019-04-29T01:57:02.302Z,11.94
2019-04-29T01:58:02.301Z,11.85
2019-04-29T01:59:02.285Z,11.82
2019-04-29T02:00:02.270Z,11.82
2019-04-29T02:01:02.262Z,11.81
2019-04-29T02:02:02.247Z,11.85
2019-04-29T02:03:02.248Z,11.85
2019-04-29T02:04:02.230Z,11.82
2019-04-29T02:05:02.219Z,11.85
2019-04-29T02:06:02.204Z,11.87
2019-04-29T02:07:02.196Z,11.87
2019-04-29T02:08:02.196Z,11.90
2019-04-29T02:09:02.171Z,11.88
2019-04-29T02:10:02.162Z,11.84
2019-04-29T02:11:02.153Z,11.87
2019-04-29T02:12:02.139Z,11.85
2019-04-29T02:13:02.142Z,11.88
2019-04-29T02:14:02.119Z,11.84
2019-04-29T02:15:02.107Z,11.82
2019-04-29T02:16:02.096Z,11.70
2019-04-29T02:17:02.092Z,11.78
2019-04-29T02:18:02.086Z,11.81
2019-04-29T02:19:02.064Z,11.74
2019-04-29T02:20:02.053Z,11.72
2019-04-29T02:21:02.048Z,11.72
2019-04-29T02:22:02.032Z,11.75
2019-04-29T02:23:02.031Z,11.77
2019-04-29T02:24:02.010Z,11.78
2019-04-29T02:25:02.001Z,11.70
2019-04-29T02:26:01.989Z,11.77
2019-04-29T02:27:01.977Z,11.69
2019-04-29T02:28:01.978Z,11.59
2019-04-29T02:29:01.958Z,11.67
2019-04-29T02:30:02.033Z,11.70
2019-04-29T02:31:01.938Z,11.70
2019-04-29T02:32:01.926Z,11.66
2019-04-29T02:33:02.092Z,11.69
2019-04-29T02:34:01.907Z,11.70
2019-04-29T02:35:01.893Z,11.74
2019-04-29T02:36:01.884Z,11.56
2019-04-29T02:37:01.871Z,11.67
2019-04-29T02:38:01.860Z,11.66
2019-04-29T02:39:01.871Z,11.69
2019-04-29T02:40:01.842Z,11.66
2019-04-29T02:41:01.828Z,11.67
2019-04-29T02:42:01.854Z,11.66
2019-04-29T02:43:01.828Z,11.60
2019-04-29T02:44:01.808Z,11.63
2019-04-29T02:45:01.781Z,11.63
2019-04-29T02:46:01.779Z,11.62
2019-04-29T02:47:01.762Z,11.56
2019-04-29T02:48:01.753Z,11.60
2019-04-29T02:49:01.749Z,11.53
2019-04-29T02:50:01.734Z,11.57
2019-04-29T02:51:01.721Z,11.59
2019-04-29T02:52:01.714Z,11.49
2019-04-29T02:53:01.705Z,11.57
2019-04-29T02:54:01.696Z,11.56
2019-04-29T02:55:01.688Z,11.59
2019-04-29T02:56:01.668Z,11.60
2019-04-29T02:57:01.658Z,11.59
2019-04-29T02:58:01.649Z,11.51
2019-04-29T02:59:01.677Z,11.54
2019-04-29T03:00:01.632Z,11.54
2019-04-29T03:01:01.625Z,11.57
2019-04-29T03:02:01.600Z,11.53
2019-04-29T03:03:01.592Z,11.48
2019-04-29T03:04:01.592Z,11.49
2019-04-29T03:05:01.569Z,11.46
2019-04-29T03:06:01.577Z,11.48
2019-04-29T03:07:01.550Z,11.46
2019-04-29T03:08:01.538Z,11.45
2019-04-29T03:09:01.532Z,11.46
2019-04-29T03:10:01.537Z,11.53
2019-04-29T03:11:01.501Z,11.51
2019-04-29T03:12:01.850Z,11.42
2019-04-29T03:13:01.487Z,11.44
2019-04-29T03:14:01.477Z,11.48
2019-04-29T03:15:01.471Z,11.57
2019-04-29T03:16:01.448Z,11.49
2019-04-29T03:17:01.454Z,11.39
2019-04-29T03:18:01.428Z,11.42
2019-04-29T03:19:01.437Z,11.54
2019-04-29T03:20:01.425Z,11.46
2019-04-29T03:21:01.400Z,11.46
2019-04-29T03:22:01.387Z,11.44
2019-04-29T03:23:01.373Z,11.38
2019-04-29T03:24:01.369Z,11.54
2019-04-29T03:25:01.378Z,11.51
2019-04-29T03:26:01.341Z,11.51
2019-04-29T03:27:01.341Z,11.48
2019-04-29T03:28:01.322Z,11.53
2019-04-29T03:29:01.310Z,11.49
2019-04-29T03:30:01.306Z,11.53
2019-04-29T03:31:01.322Z,11.45
2019-04-29T03:32:01.278Z,11.49
2019-04-29T03:33:01.282Z,11.48
2019-04-29T03:34:01.448Z,11.46
2019-04-29T03:35:01.254Z,11.41
2019-04-29T03:36:01.241Z,11.39
2019-04-29T03:37:01.232Z,11.36
2019-04-29T03:38:01.216Z,11.42
2019-04-29T03:39:01.204Z,11.35
2019-04-29T03:40:01.572Z,11.38
2019-04-29T03:41:01.184Z,11.36
2019-04-29T03:42:01.168Z,11.41
2019-04-29T03:43:01.159Z,11.42
2019-04-29T03:44:01.148Z,11.30
2019-04-29T03:45:01.145Z,11.31
2019-04-29T03:46:01.138Z,11.42
2019-04-29T03:47:01.114Z,11.42
2019-04-29T03:48:01.102Z,11.31
2019-04-29T03:49:01.096Z,11.38
2019-04-29T03:50:01.084Z,11.36
2019-04-29T03:51:01.079Z,11.38
2019-04-29T03:52:01.061Z,11.39
2019-04-29T03:53:01.050Z,11.33
2019-04-29T03:54:01.039Z,11.38
2019-04-29T03:55:01.028Z,11.30
2019-04-29T03:56:01.031Z,11.38
2019-04-29T03:57:01.007Z,11.35
2019-04-29T03:58:00.999Z,11.36
2019-04-29T03:59:00.983Z,11.27
2019-04-29T04:00:01.001Z,11.36
2019-04-29T04:01:00.972Z,11.26
2019-04-29T04:02:00.958Z,11.26
2019-04-29T04:03:00.945Z,11.28
2019-04-29T04:04:00.931Z,11.21
2019-04-29T04:05:00.925Z,11.24
2019-04-29T04:06:00.933Z,11.24
2019-04-29T04:07:04.016Z,11.23
2019-04-29T04:08:00.893Z,11.26
2019-04-29T04:09:06.208Z,11.27
2019-04-29T04:10:01.866Z,11.26
2019-04-29T04:11:00.862Z,11.30
2019-04-29T04:12:00.858Z,11.27
2019-04-29T04:13:00.839Z,11.33
2019-04-29T04:14:00.825Z,11.33
2019-04-29T04:15:00.812Z,11.26
2019-04-29T04:16:00.800Z,11.27
2019-04-29T04:17:00.798Z,11.27
2019-04-29T04:18:00.780Z,11.39
2019-04-29T04:19:00.767Z,11.31
2019-04-29T04:20:00.757Z,11.28
2019-04-29T04:21:00.746Z,11.28
2019-04-29T04:22:00.753Z,11.28
2019-04-29T04:23:00.728Z,11.28
2019-04-29T04:24:00.717Z,11.33
2019-04-29T04:25:00.708Z,11.33
2019-04-29T04:26:00.716Z,11.31
2019-04-29T04:27:00.696Z,11.33
2019-04-29T04:28:00.672Z,11.23
2019-04-29T04:29:00.672Z,11.33
2019-04-29T04:30:00.651Z,11.26
2019-04-29T04:31:00.663Z,11.33
2019-04-29T04:32:00.655Z,11.36
2019-04-29T04:33:00.635Z,11.27
2019-04-29T04:34:00.606Z,11.33
2019-04-29T04:35:00.598Z,11.28
2019-04-29T04:36:00.585Z,11.27
2019-04-29T04:37:00.669Z,11.30
2019-04-29T04:38:00.577Z,11.31
2019-04-29T04:39:00.552Z,11.33
2019-04-29T04:40:00.540Z,11.28
2019-04-29T04:41:00.531Z,11.33
2019-04-29T04:42:00.521Z,11.31
2019-04-29T04:43:00.529Z,11.35
2019-04-29T04:44:00.502Z,11.31
2019-04-29T04:45:00.489Z,11.30
2019-04-29T04:46:00.514Z,11.33
2019-04-29T04:47:00.466Z,11.36
2019-04-29T04:48:00.467Z,11.31
2019-04-29T04:49:00.451Z,11.31
2019-04-29T04:50:00.432Z,11.39
2019-04-29T04:51:00.425Z,11.31
2019-04-29T04:52:00.415Z,11.44
2019-04-29T04:53:00.412Z,11.39
2019-04-29T04:54:00.394Z,11.38
2019-04-29T04:55:00.377Z,11.35
2019-04-29T04:56:00.368Z,11.33
2019-04-29T04:57:00.361Z,11.35
2019-04-29T04:58:00.355Z,11.33
2019-04-29T04:59:00.336Z,11.38
2019-04-29T05:00:00.327Z,11.38
2019-04-29T05:01:00.313Z,11.35
2019-04-29T05:02:00.302Z,11.36
2019-04-29T05:03:00.304Z,11.33
2019-04-29T05:04:00.282Z,11.36
2019-04-29T05:05:00.289Z,11.42
2019-04-29T05:06:00.272Z,11.35
2019-04-29T05:07:00.247Z,11.35
2019-04-29T05:08:00.257Z,11.38
2019-04-29T05:09:00.225Z,11.36
2019-04-29T05:10:00.214Z,11.38
2019-04-29T05:11:00.205Z,11.39
2019-04-29T05:12:00.193Z,11.31
2019-04-29T05:13:00.219Z,11.36
2019-04-29T05:14:00.172Z,11.35
2019-04-29T05:15:00.169Z,11.33
2019-04-29T05:16:00.152Z,11.28
2019-04-29T05:17:00.897Z,11.33
2019-04-29T05:18:00.133Z,11.33
2019-04-29T05:19:00.131Z,11.28
2019-04-29T05:20:00.107Z,11.27
2019-04-29T05:21:00.096Z,11.27
2019-04-29T05:22:00.085Z,11.27
2019-04-29T05:23:00.096Z,11.30
2019-04-29T05:24:00.072Z,11.27
2019-04-29T05:25:00.056Z,11.38
2019-04-29T05:26:00.059Z,11.42
2019-04-29T05:27:00.031Z,11.38
2019-04-29T05:28:00.019Z,11.45
2019-04-29T05:29:00.021Z,11.45
2019-04-29T05:30:00.002Z,11.44
2019-04-29T05:30:59.987Z,11.51
2019-04-29T05:31:59.977Z,11.42
2019-04-29T05:32:59.965Z,11.51
2019-04-29T05:33:59.969Z,11.46
2019-04-29T05:34:59.944Z,11.46
2019-04-29T05:36:02.028Z,11.49
2019-04-29T05:36:59.922Z,11.48
2019-04-29T05:37:59.912Z,11.45
2019-04-29T05:38:59.912Z,11.51
2019-04-29T05:39:59.892Z,11.42
2019-04-29T05:40:59.879Z,11.49
2019-04-29T05:41:59.868Z,11.42
2019-04-29T05:42:59.861Z,11.57
2019-04-29T05:43:59.857Z,11.53
2019-04-29T05:44:59.837Z,11.57
2019-04-29T05:45:59.829Z,11.53
2019-04-29T05:46:59.813Z,11.59
2019-04-29T05:47:59.805Z,11.54
2019-04-29T05:49:02.492Z,11.59
2019-04-29T05:50:00.782Z,11.53
2019-04-29T05:50:59.771Z,11.56
2019-04-29T05:52:01.853Z,11.51
2019-04-29T05:52:59.748Z,11.57
2019-04-29T05:53:59.737Z,11.57
2019-04-29T05:55:01.462Z,11.56
2019-04-29T05:55:59.716Z,11.51
2019-04-29T05:56:59.707Z,11.66
2019-04-29T05:58:03.013Z,11.62
2019-04-29T05:58:59.684Z,11.59
2019-04-29T05:59:59.683Z,11.63
2019-04-29T06:00:59.663Z,11.64
2019-04-29T06:01:59.652Z,11.66
2019-04-29T06:02:59.672Z,11.69
2019-04-29T06:03:59.631Z,11.62
2019-04-29T06:04:59.630Z,11.66
2019-04-29T06:05:59.611Z,11.63
2019-04-29T06:06:59.619Z,11.66
2019-04-29T06:08:01.164Z,11.70
2019-04-29T06:08:59.580Z,11.64
2019-04-29T06:09:59.577Z,11.64
2019-04-29T06:10:59.560Z,11.70
2019-04-29T06:11:59.549Z,11.70
2019-04-29T06:12:59.538Z,11.72
2019-04-29T06:13:59.523Z,11.69
2019-04-29T06:14:59.554Z,11.74
2019-04-29T06:15:59.503Z,11.74
2019-04-29T06:17:02.850Z,11.74
2019-04-29T06:18:00.480Z,11.74
2019-04-29T06:19:00.210Z,11.72
2019-04-29T06:19:59.464Z,11.75
2019-04-29T06:21:08.943Z,11.69
2019-04-29T06:22:00.453Z,11.77
2019-04-29T06:22:59.429Z,11.69
2019-04-29T06:24:04.070Z,11.72
2019-04-29T06:25:00.405Z,11.69
2019-04-29T06:25:59.415Z,11.69
2019-04-29T06:26:59.383Z,11.70
2019-04-29T06:27:59.374Z,11.69
2019-04-29T06:28:59.360Z,11.74
2019-04-29T06:30:03.139Z,11.70
2019-04-29T06:31:00.350Z,11.75
2019-04-29T06:31:59.330Z,11.67
2019-04-29T06:32:59.324Z,11.74
2019-04-29T06:34:00.725Z,11.74
2019-04-29T06:35:00.293Z,11.74
2019-04-29T06:35:59.294Z,11.78
2019-04-29T06:36:59.275Z,11.84
2019-04-29T06:37:59.265Z,11.75
2019-04-29T06:38:59.253Z,11.69
2019-04-29T06:39:59.244Z,11.70
2019-04-29T06:40:59.264Z,11.70
2019-04-29T06:41:59.219Z,11.75
2019-04-29T06:42:59.210Z,11.77
2019-04-29T06:44:00.680Z,11.74
2019-04-29T06:45:00.187Z,11.69
2019-04-29T06:45:59.180Z,11.75
2019-04-29T06:46:59.179Z,11.75
2019-04-29T06:47:59.176Z,11.75
2019-04-29T06:49:09.962Z,11.70
2019-04-29T06:50:00.132Z,11.74
2019-04-29T06:50:59.123Z,11.66
2019-04-29T06:51:59.123Z,11.67
2019-04-29T06:52:59.102Z,11.75
2019-04-29T06:53:59.095Z,11.62
2019-04-29T06:54:59.081Z,11.69
2019-04-29T06:55:59.069Z,11.70
2019-04-29T06:56:59.072Z,11.67
2019-04-29T06:57:59.051Z,11.72
2019-04-29T06:58:59.040Z,11.70
2019-04-29T06:59:59.030Z,11.69
2019-04-29T07:01:01.020Z,11.72
2019-04-29T07:01:59.020Z,11.70
2019-04-29T07:02:58.993Z,11.72
2019-04-29T07:03:59.914Z,11.69
2019-04-29T07:04:58.971Z,11.72
2019-04-29T07:05:58.962Z,11.70
2019-04-29T07:06:58.967Z,11.70
2019-04-29T07:07:58.940Z,11.69
2019-04-29T07:08:58.932Z,11.72
2019-04-29T07:09:58.919Z,11.77
2019-04-29T07:11:01.070Z,11.72
2019-04-29T07:12:01.673Z,11.79
2019-04-29T07:12:58.889Z,11.72
2019-04-29T07:13:59.364Z,11.77
2019-04-29T07:14:58.863Z,11.69
2019-04-29T07:15:58.856Z,11.69
2019-04-29T07:17:00.730Z,11.82
2019-04-29T07:17:59.830Z,11.82
2019-04-29T07:18:58.821Z,11.87
2019-04-29T07:20:01.977Z,11.90
2019-04-29T07:20:58.800Z,11.79
2019-04-29T07:21:58.797Z,11.93
2019-04-29T07:23:00.770Z,11.82
2019-04-29T07:23:58.765Z,11.93
2019-04-29T07:24:58.757Z,11.98
2019-04-29T07:25:58.743Z,11.96
2019-04-29T07:27:02.862Z,12.01
2019-04-29T07:27:59.722Z,11.87
2019-04-29T07:28:58.712Z,12.01
2019-04-29T07:30:01.736Z,11.93
2019-04-29T07:31:01.773Z,12.00
2019-04-29T07:31:58.688Z,12.01
2019-04-29T07:32:58.670Z,11.98
2019-04-29T07:33:59.119Z,12.04
2019-04-29T07:34:58.652Z,12.01
2019-04-29T07:36:10.336Z,12.04
2019-04-29T07:36:59.661Z,12.07
2019-04-29T07:37:58.615Z,12.07
2019-04-29T07:38:58.606Z,12.19
2019-04-29T07:39:58.595Z,12.19
2019-04-29T07:40:58.585Z,12.21
2019-04-29T07:41:58.575Z,12.23
2019-04-29T07:42:58.598Z,12.25
2019-04-29T07:43:58.549Z,12.21
2019-04-29T07:44:58.539Z,12.29
2019-04-29T07:46:03.139Z,12.22
2019-04-29T07:47:02.272Z,12.30
2019-04-29T07:48:01.820Z,12.31
2019-04-29T07:49:01.800Z,12.36
2019-04-29T07:49:58.533Z,12.30
2019-04-29T07:50:59.396Z,12.31
2019-04-29T07:51:59.465Z,12.34
2019-04-29T07:52:58.463Z,12.34
2019-04-29T07:53:58.444Z,12.38
2019-04-29T07:54:58.435Z,12.40
2019-04-29T07:56:01.793Z,12.34
2019-04-29T07:56:59.416Z,12.34
2019-04-29T07:57:58.411Z,12.33
2019-04-29T07:58:58.936Z,12.30
2019-04-29T07:59:58.380Z,12.36
2019-04-29T08:00:58.371Z,12.29
2019-04-29T08:01:59.769Z,12.34
2019-04-29T08:02:58.356Z,12.31
2019-04-29T08:03:58.338Z,12.34
2019-04-29T08:04:58.330Z,12.41
2019-04-29T08:05:58.317Z,12.43
2019-04-29T08:06:58.307Z,12.48
2019-04-29T08:07:58.307Z,12.41
2019-04-29T08:09:03.175Z,12.40
2019-04-29T08:09:59.279Z,12.46
2019-04-29T08:10:58.265Z,12.49
2019-04-29T08:11:58.259Z,12.43
2019-04-29T08:12:58.252Z,12.44
2019-04-29T08:13:58.234Z,12.43
2019-04-29T08:15:07.279Z,12.46
2019-04-29T08:15:59.210Z,12.43
2019-04-29T08:16:58.201Z,12.43
2019-04-29T08:18:06.387Z,12.49
2019-04-29T08:18:59.204Z,12.46
2019-04-29T08:20:00.621Z,12.43
2019-04-29T08:20:59.157Z,12.49
2019-04-29T08:21:58.146Z,12.46
2019-04-29T08:22:58.341Z,12.49
2019-04-29T08:23:58.125Z,12.44
2019-04-29T08:24:58.113Z,12.51
2019-04-29T08:26:02.731Z,12.44
2019-04-29T08:26:59.098Z,12.46
2019-04-29T08:27:58.092Z,12.41
2019-04-29T08:29:00.321Z,12.43
2019-04-29T08:29:58.061Z,12.41
2019-04-29T08:30:58.048Z,12.46
2019-04-29T08:32:02.317Z,12.49
2019-04-29T08:32:58.047Z,12.48
2019-04-29T08:33:58.020Z,12.43
2019-04-29T08:35:03.123Z,12.46
2019-04-29T08:35:59.000Z,12.43
2019-04-29T08:36:57.986Z,12.41
2019-04-29T08:37:58.001Z,12.51
2019-04-29T08:39:08.377Z,12.44
2019-04-29T08:40:14.797Z,12.49
2019-04-29T08:40:58.943Z,12.43
2019-04-29T08:41:58.841Z,12.37
2019-04-29T08:42:58.982Z,12.31
2019-04-29T08:44:14.947Z,12.48
2019-04-29T08:44:59.644Z,12.43
2019-04-29T08:45:57.889Z,12.43
2019-04-29T08:46:57.879Z,12.34
2019-04-29T08:47:57.868Z,12.40
2019-04-29T08:49:01.087Z,12.46
2019-04-29T08:49:58.849Z,12.48
2019-04-29T08:50:57.839Z,12.30
2019-04-29T08:51:57.828Z,12.34
2019-04-29T08:52:57.844Z,12.29
2019-04-29T08:53:57.816Z,12.37
2019-04-29T08:54:57.796Z,12.49
2019-04-29T08:55:57.788Z,12.49
2019-04-29T08:57:02.803Z,12.48
2019-04-29T08:57:58.761Z,12.41
2019-04-29T08:58:57.759Z,12.43
2019-04-29T08:59:57.741Z,12.49
2019-04-29T09:00:57.762Z,12.33
2019-04-29T09:01:57.718Z,12.30
2019-04-29T09:02:57.708Z,12.33
2019-04-29T09:03:58.162Z,12.34
2019-04-29T09:04:57.687Z,12.46
2019-04-29T09:06:05.248Z,12.43
2019-04-29T09:07:11.793Z,12.49
2019-04-29T09:07:59.125Z,12.48
2019-04-29T09:08:59.592Z,12.54
2019-04-29T09:10:02.044Z,12.43
2019-04-29T09:10:58.620Z,12.56
2019-04-29T09:11:57.614Z,12.54
2019-04-29T09:12:57.600Z,12.56
2019-04-29T09:13:57.603Z,12.59
2019-04-29T09:14:57.578Z,12.61
2019-04-29T09:15:57.571Z,12.58
2019-04-29T09:16:57.560Z,12.61
2019-04-29T09:17:57.560Z,12.67
2019-04-29T09:18:57.614Z,12.56
2019-04-29T09:19:57.534Z,12.62
2019-04-29T09:20:57.517Z,12.63
2019-04-29T09:21:57.506Z,12.66
2019-04-29T09:22:57.494Z,12.73
2019-04-29T09:23:57.569Z,12.63
2019-04-29T09:24:57.473Z,12.66
2019-04-29T09:26:02.725Z,12.67
2019-04-29T09:26:58.452Z,12.71
2019-04-29T09:27:57.461Z,12.71
2019-04-29T09:28:59.774Z,12.73
2019-04-29T09:29:59.134Z,12.69
2019-04-29T09:30:57.410Z,12.76
2019-04-29T09:31:57.398Z,12.71
2019-04-29T09:32:57.393Z,12.73
2019-04-29T09:34:06.433Z,12.77
2019-04-29T09:34:59.458Z,12.76
2019-04-29T09:35:57.361Z,12.74
2019-04-29T09:36:57.356Z,12.77
2019-04-29T09:37:58.348Z,12.80
2019-04-29T09:38:57.320Z,12.79
2019-04-29T09:39:57.322Z,12.77
2019-04-29T09:40:59.486Z,12.84
2019-04-29T09:41:57.296Z,12.79
2019-04-29T09:42:57.307Z,12.80
2019-04-29T09:43:59.155Z,12.84
2019-04-29T09:44:58.265Z,12.80
2019-04-29T09:45:58.862Z,12.80
2019-04-29T09:46:57.235Z,12.67
2019-04-29T09:47:57.221Z,12.76
2019-04-29T09:48:57.212Z,12.67
2019-04-29T09:49:57.210Z,12.70
2019-04-29T09:50:57.191Z,12.70
2019-04-29T09:51:57.177Z,12.70
2019-04-29T09:52:57.166Z,12.71
2019-04-29T09:53:57.158Z,12.73
2019-04-29T09:54:59.602Z,12.76
2019-04-29T09:55:58.133Z,12.71
2019-04-29T09:56:57.126Z,12.63
2019-04-29T09:57:57.113Z,12.67
2019-04-29T09:58:57.100Z,12.66
2019-04-29T10:00:00.273Z,12.67
2019-04-29T10:00:58.576Z,12.71
2019-04-29T10:01:57.072Z,12.69
2019-04-29T10:02:57.058Z,12.63
2019-04-29T10:03:57.048Z,12.69
2019-04-29T10:04:57.179Z,12.63
2019-04-29T10:05:57.027Z,12.71
2019-04-29T10:06:57.014Z,12.67
2019-04-29T10:07:57.003Z,12.67
2019-04-29T10:08:56.993Z,12.66
2019-04-29T10:09:57.920Z,12.67
2019-04-29T10:10:57.984Z,12.70
2019-04-29T10:11:56.969Z,12.67
2019-04-29T10:12:56.951Z,12.66
2019-04-29T10:13:56.963Z,12.66
2019-04-29T10:14:56.928Z,12.69
2019-04-29T10:16:00.361Z,12.67
2019-04-29T10:16:57.901Z,12.67
2019-04-29T10:17:56.895Z,12.66
2019-04-29T10:19:00.426Z,12.69
2019-04-29T10:19:56.869Z,12.69
2019-04-29T10:20:56.868Z,12.73
2019-04-29T10:21:56.847Z,12.73
2019-04-29T10:22:56.840Z,12.69
2019-04-29T10:23:56.829Z,12.69
2019-04-29T10:24:56.818Z,12.74
2019-04-29T10:25:56.816Z,12.79
2019-04-29T10:26:56.795Z,12.79
2019-04-29T10:27:56.785Z,12.80
2019-04-29T10:28:56.773Z,12.74
2019-04-29T10:29:57.156Z,12.79
2019-04-29T10:30:56.766Z,12.85
2019-04-29T10:31:56.742Z,12.80
2019-04-29T10:32:56.727Z,12.87
2019-04-29T10:33:56.719Z,12.77
2019-04-29T10:34:56.706Z,12.79
2019-04-29T10:35:56.707Z,12.76
2019-04-29T10:36:56.740Z,12.77
2019-04-29T10:37:56.673Z,12.80
2019-04-29T10:38:56.663Z,12.85
2019-04-29T10:40:10.183Z,12.81
2019-04-29T10:41:00.634Z,12.89
2019-04-29T10:41:56.636Z,12.89
2019-04-29T10:42:56.622Z,12.91
2019-04-29T10:43:56.610Z,12.88
2019-04-29T10:44:56.601Z,12.88
2019-04-29T10:45:56.625Z,12.89
2019-04-29T10:46:56.600Z,12.92
2019-04-29T10:47:56.563Z,12.92
2019-04-29T10:48:58.960Z,12.80
2019-04-29T10:49:57.544Z,12.91
2019-04-29T10:50:56.533Z,12.80
2019-04-29T10:51:58.160Z,12.92
2019-04-29T10:52:57.507Z,12.99
2019-04-29T10:53:56.498Z,12.80
2019-04-29T10:54:56.734Z,12.96
2019-04-29T10:55:56.475Z,12.94
2019-04-29T10:56:56.477Z,12.96
2019-04-29T10:57:56.454Z,12.85
2019-04-29T10:58:56.443Z,12.89
2019-04-29T10:59:56.436Z,12.92
2019-04-29T11:00:57.322Z,12.94
2019-04-29T11:02:01.378Z,12.88
2019-04-29T11:02:57.399Z,12.87
2019-04-29T11:04:00.843Z,13.07
2019-04-29T11:04:57.935Z,12.88
2019-04-29T11:06:01.854Z,12.91
2019-04-29T11:06:57.384Z,12.95
2019-04-29T11:07:58.191Z,12.91
2019-04-29T11:08:57.332Z,12.92
2019-04-29T11:09:56.379Z,12.88
2019-04-29T11:11:02.461Z,12.99
2019-04-29T11:11:57.303Z,13.03
2019-04-29T11:12:56.301Z,12.91
2019-04-29T11:13:57.561Z,12.96
2019-04-29T11:14:56.270Z,12.92
2019-04-29T11:15:56.265Z,12.91
2019-04-29T11:16:56.247Z,12.88
2019-04-29T11:17:59.238Z,12.94
2019-04-29T11:19:00.118Z,12.91
2019-04-29T11:19:57.213Z,13.01
2019-04-29T11:20:56.208Z,12.95
2019-04-29T11:21:56.201Z,13.01
2019-04-29T11:22:56.194Z,13.06
2019-04-29T11:23:56.514Z,12.94
2019-04-29T11:24:56.165Z,12.99
2019-04-29T11:25:56.149Z,12.99
2019-04-29T11:26:56.137Z,13.09
2019-04-29T11:27:56.375Z,12.99
2019-04-29T11:28:56.115Z,13.04
2019-04-29T11:29:58.629Z,13.06
2019-04-29T11:30:57.096Z,13.03
2019-04-29T11:31:56.087Z,13.14
2019-04-29T11:32:59.971Z,13.03
2019-04-29T11:33:57.062Z,13.14
2019-04-29T11:34:56.050Z,13.10
2019-04-29T11:35:59.206Z,13.13
2019-04-29T11:36:57.027Z,13.21
2019-04-29T11:37:59.754Z,13.16
2019-04-29T11:38:56.005Z,13.14
2019-04-29T11:39:57.235Z,13.25
2019-04-29T11:40:55.986Z,13.28
2019-04-29T11:41:59.648Z,13.19
2019-04-29T11:42:56.969Z,13.16
2019-04-29T11:43:55.950Z,13.24
2019-04-29T11:44:57.189Z,13.19
2019-04-29T11:45:56.928Z,13.19
2019-04-29T11:46:55.918Z,13.19
2019-04-29T11:47:55.918Z,13.19
2019-04-29T11:48:55.904Z,13.27
2019-04-29T11:49:55.888Z,13.24
2019-04-29T11:50:55.876Z,13.22
2019-04-29T11:52:09.202Z,13.25
2019-04-29T11:52:56.864Z,13.21
2019-04-29T11:53:55.842Z,13.24
2019-04-29T11:54:55.832Z,13.24
2019-04-29T11:55:56.959Z,13.35
2019-04-29T11:56:55.823Z,13.29
2019-04-29T11:57:55.797Z,13.31
2019-04-29T11:58:55.817Z,13.31
2019-04-29T11:59:55.778Z,13.36
2019-04-29T12:00:55.770Z,13.38
2019-04-29T12:01:55.763Z,13.36
2019-04-29T12:02:55.747Z,13.43
2019-04-29T12:03:56.621Z,13.44
2019-04-29T12:04:55.724Z,13.36
2019-04-29T12:05:55.717Z,13.47
2019-04-29T12:06:56.268Z,13.50
2019-04-29T12:07:55.690Z,13.44
2019-04-29T12:08:55.690Z,13.59
2019-04-29T12:09:55.669Z,13.53
2019-04-29T12:11:06.483Z,13.65
2019-04-29T12:11:56.646Z,13.61
2019-04-29T12:12:55.636Z,13.63
2019-04-29T12:13:58.974Z,13.68
2019-04-29T12:14:56.613Z,13.66
2019-04-29T12:15:55.603Z,13.80
2019-04-29T12:16:55.595Z,13.83
2019-04-29T12:17:55.582Z,13.80
2019-04-29T12:18:55.583Z,13.83
2019-04-29T12:19:55.562Z,13.73
2019-04-29T12:20:55.552Z,13.88
2019-04-29T12:21:55.541Z,13.88
2019-04-29T12:22:55.529Z,13.90
2019-04-29T12:23:55.526Z,13.94
2019-04-29T12:24:55.566Z,13.90
2019-04-29T12:25:58.756Z,13.91
2019-04-29T12:26:56.484Z,13.96
2019-04-29T12:28:01.554Z,14.02
2019-04-29T12:28:56.474Z,14.08
2019-04-29T12:29:59.426Z,14.06
2019-04-29T12:30:55.443Z,14.13
2019-04-29T12:31:55.431Z,14.13
2019-04-29T12:32:56.918Z,14.21
2019-04-29T12:33:56.429Z,14.17
2019-04-29T12:34:55.399Z,14.23
2019-04-29T12:35:58.697Z,14.21
2019-04-29T12:36:56.899Z,14.27
2019-04-29T12:37:55.368Z,14.38
2019-04-29T12:38:55.365Z,14.38
2019-04-29T12:39:55.346Z,14.31
2019-04-29T12:40:55.371Z,14.39
2019-04-29T12:41:55.323Z,14.44
2019-04-29T12:42:55.398Z,14.39
2019-04-29T12:43:59.156Z,14.41
2019-04-29T12:44:55.290Z,14.38
2019-04-29T12:45:55.317Z,14.48
2019-04-29T12:46:55.271Z,14.42
2019-04-29T12:47:55.261Z,14.54
2019-04-29T12:48:55.260Z,14.54
2019-04-29T12:49:55.960Z,14.56
2019-04-29T12:50:57.574Z,14.57
2019-04-29T12:51:55.215Z,14.59